createdAt,value
2019-03-03T00:00:17.130Z,6.70
2019-03-03T00:02:45.491Z,6.70
2019-03-03T00:05:14.070Z,6.80
2019-03-03T00:07:42.506Z,6.80
2019-03-03T00:10:11.802Z,6.80
2019-03-03T00:12:40.353Z,6.80
2019-03-03T00:15:11.002Z,6.80
2019-03-03T00:17:39.482Z,6.90
2019-03-03T00:20:13.666Z,6.80
2019-03-03T00:22:42.190Z,6.80
2019-03-03T00:25:12.966Z,6.80
2019-03-03T00:27:41.499Z,6.90
2019-03-03T00:30:19.151Z,6.90
2019-03-03T00:32:47.678Z,6.90
2019-03-03T00:35:16.266Z,6.90
2019-03-03T00:38:02.507Z,7.00
2019-03-03T00:40:38.559Z,7.00
2019-03-03T00:43:25.262Z,7.00
2019-03-03T00:45:55.307Z,7.00
2019-03-03T00:48:42.022Z,7.00
2019-03-03T00:51:17.820Z,7.00
2019-03-03T00:53:47.870Z,7.00
2019-03-03T00:56:24.198Z,7.00
2019-03-03T00:59:06.426Z,7.10
2019-03-03T01:01:36.473Z,7.10
2019-03-03T01:04:06.790Z,7.10
2019-03-03T01:06:39.924Z,7.00
2019-03-03T01:09:37.384Z,7.00
2019-03-03T01:12:16.190Z,7.00
2019-03-03T01:14:55.309Z,7.00
2019-03-03T01:17:37.130Z,7.00
2019-03-03T01:20:10.078Z,7.10
2019-03-03T01:22:42.870Z,7.10
2019-03-03T01:25:11.351Z,7.00
2019-03-03T01:27:39.863Z,7.00
2019-03-03T01:30:11.507Z,6.90
2019-03-03T01:32:40.099Z,6.90
2019-03-03T01:35:10.377Z,6.90
2019-03-03T01:37:38.862Z,6.90
2019-03-03T01:40:11.851Z,7.00
2019-03-03T01:42:41.335Z,7.00
2019-03-03T01:45:12.210Z,7.00
2019-03-03T01:47:40.752Z,7.00
2019-03-03T01:50:11.239Z,7.00
2019-03-03T01:52:39.719Z,7.00
2019-03-03T01:55:10.062Z,7.00
2019-03-03T01:57:38.510Z,7.00
2019-03-03T02:00:27.781Z,7.00
2019-03-03T02:02:57.253Z,6.90
2019-03-03T02:05:25.718Z,7.00
2019-03-03T02:07:54.131Z,7.10
2019-03-03T02:10:23.346Z,7.10
2019-03-03T02:12:51.936Z,7.10
2019-03-03T02:15:20.614Z,7.10
2019-03-03T02:17:49.131Z,7.00
2019-03-03T02:20:17.606Z,7.10
2019-03-03T02:22:46.051Z,7.00
2019-03-03T02:25:14.993Z,7.00
2019-03-03T02:27:43.407Z,7.10
2019-03-03T02:30:15.808Z,7.10
2019-03-03T02:32:44.248Z,7.10
2019-03-03T02:35:12.767Z,7.10
2019-03-03T02:37:41.183Z,7.10
2019-03-03T02:40:12.814Z,7.10
2019-03-03T02:42:41.298Z,7.10
2019-03-03T02:45:14.624Z,7.10
2019-03-03T02:47:43.131Z,7.10
2019-03-03T02:50:14.235Z,7.00
2019-03-03T02:52:42.699Z,7.00
2019-03-03T02:55:13.168Z,7.00
2019-03-03T02:57:41.582Z,7.10
2019-03-03T03:00:13.320Z,7.10
2019-03-03T03:02:46.392Z,7.00
2019-03-03T03:05:16.631Z,7.00
2019-03-03T03:07:49.152Z,7.00
2019-03-03T03:10:30.975Z,7.10
2019-03-03T03:13:01.019Z,7.20
2019-03-03T03:15:47.459Z,7.10
2019-03-03T03:18:20.193Z,7.10
2019-03-03T03:20:53.180Z,7.10
2019-03-03T03:23:28.856Z,7.10
2019-03-03T03:26:01.917Z,7.10
2019-03-03T03:28:34.769Z,7.20
2019-03-03T03:31:04.805Z,7.10
2019-03-03T03:33:53.365Z,7.10
2019-03-03T03:36:23.415Z,7.00
2019-03-03T03:38:53.461Z,7.00
2019-03-03T03:41:23.607Z,7.00
2019-03-03T03:43:56.387Z,7.00
2019-03-03T03:46:26.437Z,6.90
2019-03-03T03:49:05.775Z,7.00
2019-03-03T03:51:35.824Z,7.00
2019-03-03T03:54:12.007Z,7.00
2019-03-03T03:56:42.054Z,7.00
2019-03-03T03:59:12.104Z,7.00
2019-03-03T04:01:44.688Z,7.00
2019-03-03T04:04:20.502Z,7.00
2019-03-03T04:06:50.579Z,7.00
2019-03-03T04:09:23.595Z,7.10
2019-03-03T04:12:10.043Z,7.10
2019-03-03T04:14:45.893Z,7.10
2019-03-03T04:17:31.033Z,7.10
2019-03-03T04:20:10.027Z,7.10
2019-03-03T04:22:45.757Z,7.10
2019-03-03T04:25:18.682Z,7.10
2019-03-03T04:27:48.782Z,7.00
2019-03-03T04:30:21.746Z,6.90
2019-03-03T04:33:09.846Z,7.00
2019-03-03T04:35:42.367Z,7.00
2019-03-03T04:38:30.575Z,6.90
2019-03-03T04:41:00.653Z,6.90
2019-03-03T04:43:33.289Z,6.90
2019-03-03T04:46:06.026Z,6.90
2019-03-03T04:48:36.091Z,6.80
2019-03-03T04:51:06.142Z,6.80
2019-03-03T04:53:54.625Z,6.80
2019-03-03T04:56:27.666Z,6.70
2019-03-03T04:59:09.509Z,6.80
2019-03-03T05:01:56.002Z,6.70
2019-03-03T05:04:38.123Z,6.70
2019-03-03T05:07:14.123Z,6.70
2019-03-03T05:09:44.199Z,6.60
2019-03-03T05:12:25.017Z,6.60
2019-03-03T05:14:55.654Z,6.50
2019-03-03T05:17:28.434Z,6.50
2019-03-03T05:19:58.499Z,6.50
2019-03-03T05:22:26.970Z,6.50
2019-03-03T05:24:55.378Z,6.50
2019-03-03T05:27:23.803Z,6.40
2019-03-03T05:29:52.230Z,6.40
2019-03-03T05:32:20.704Z,6.40
2019-03-03T05:34:49.220Z,6.40
2019-03-03T05:37:17.658Z,6.30
2019-03-03T05:39:46.062Z,6.40
2019-03-03T05:42:14.562Z,6.30
2019-03-03T05:44:42.966Z,6.30
2019-03-03T05:47:11.406Z,6.30
2019-03-03T05:49:39.878Z,6.20
2019-03-03T05:52:08.286Z,6.30
2019-03-03T05:54:36.823Z,6.30
2019-03-03T05:57:05.190Z,6.30
2019-03-03T05:59:33.602Z,6.30
2019-03-03T06:02:02.134Z,6.30
2019-03-03T06:04:30.619Z,6.30
2019-03-03T06:06:59.023Z,6.30
2019-03-03T06:09:27.542Z,6.30
2019-03-03T06:11:55.975Z,6.30
2019-03-03T06:14:24.471Z,6.30
2019-03-03T06:16:52.899Z,6.30
2019-03-03T06:19:21.305Z,6.40
2019-03-03T06:21:49.710Z,6.40
2019-03-03T06:24:18.146Z,6.30
2019-03-03T06:26:46.614Z,6.30
2019-03-03T06:29:15.029Z,6.40
2019-03-03T06:31:43.460Z,6.40
2019-03-03T06:34:11.858Z,6.30
2019-03-03T06:36:40.335Z,6.30
2019-03-03T06:39:08.834Z,6.30
2019-03-03T06:41:37.315Z,6.30
2019-03-03T06:44:05.793Z,6.30
2019-03-03T06:46:34.241Z,6.30
2019-03-03T06:49:02.715Z,6.30
2019-03-03T06:51:31.120Z,6.40
2019-03-03T06:53:59.619Z,6.40
2019-03-03T06:56:28.101Z,6.40
2019-03-03T06:58:56.602Z,6.50
2019-03-03T07:01:25.033Z,6.40
2019-03-03T07:03:53.518Z,6.40
2019-03-03T07:06:21.992Z,6.50
2019-03-03T07:08:50.438Z,6.50
2019-03-03T07:11:18.906Z,6.60
2019-03-03T07:13:47.307Z,6.60
2019-03-03T07:16:15.747Z,6.60
2019-03-03T07:18:44.213Z,6.60
2019-03-03T07:21:12.618Z,6.70
2019-03-03T07:23:41.066Z,6.70
2019-03-03T07:26:09.548Z,6.70
2019-03-03T07:28:37.958Z,6.80
2019-03-03T07:31:06.394Z,6.80
2019-03-03T07:33:34.830Z,6.80
2019-03-03T07:36:03.234Z,6.80
2019-03-03T07:38:31.681Z,6.90
2019-03-03T07:41:00.094Z,7.00
2019-03-03T07:43:28.505Z,6.90
2019-03-03T07:45:57.019Z,7.00
2019-03-03T07:48:25.523Z,7.00
2019-03-03T07:50:53.922Z,7.00
2019-03-03T07:53:22.330Z,7.10
2019-03-03T07:55:50.833Z,7.10
2019-03-03T07:58:19.312Z,7.10
2019-03-03T08:00:47.794Z,7.10
2019-03-03T08:03:16.227Z,7.10
2019-03-03T08:05:44.759Z,7.20
2019-03-03T08:08:13.239Z,7.20
2019-03-03T08:10:41.678Z,7.20
2019-03-03T08:13:10.158Z,7.20
2019-03-03T08:15:38.691Z,7.20
2019-03-03T08:18:07.123Z,7.20
2019-03-03T08:20:35.533Z,7.20
2019-03-03T08:23:04.770Z,7.20
2019-03-03T08:25:33.218Z,7.20
2019-03-03T08:28:01.691Z,7.20
2019-03-03T08:30:31.040Z,7.30
2019-03-03T08:32:59.698Z,7.30
2019-03-03T08:35:30.529Z,7.30
2019-03-03T08:37:59.004Z,7.40
2019-03-03T08:40:27.590Z,7.40
2019-03-03T08:42:57.639Z,7.40
2019-03-03T08:45:30.542Z,7.50
2019-03-03T08:48:12.456Z,7.50
2019-03-03T08:50:54.562Z,7.60
2019-03-03T08:53:40.803Z,7.60
2019-03-03T08:56:27.110Z,7.70
2019-03-03T08:59:13.418Z,7.70
2019-03-03T09:01:46.332Z,7.80
2019-03-03T09:04:25.483Z,7.90
2019-03-03T09:07:01.706Z,8.00
2019-03-03T09:09:34.950Z,8.00
2019-03-03T09:12:07.418Z,8.10
2019-03-03T09:14:46.143Z,8.10
2019-03-03T09:17:18.931Z,8.10
2019-03-03T09:19:51.442Z,8.20
2019-03-03T09:22:37.807Z,8.20
2019-03-03T09:25:09.774Z,8.20
2019-03-03T09:27:57.253Z,8.20
2019-03-03T09:30:43.638Z,8.30
2019-03-03T09:33:13.685Z,8.30
2019-03-03T09:35:46.446Z,8.30
2019-03-03T09:38:22.014Z,8.40
2019-03-03T09:40:57.910Z,8.40
2019-03-03T09:43:30.546Z,8.50
2019-03-03T09:46:00.623Z,8.50
2019-03-03T09:48:34.917Z,8.60
2019-03-03T09:51:07.814Z,8.60
2019-03-03T09:53:43.526Z,8.60
2019-03-03T09:56:14.842Z,8.60
2019-03-03T09:58:54.078Z,8.70
2019-03-03T10:01:42.250Z,8.80
2019-03-03T10:04:24.463Z,8.90
2019-03-03T10:07:13.662Z,8.90
2019-03-03T10:09:49.222Z,9.00
2019-03-03T10:12:19.298Z,9.10
2019-03-03T10:15:05.552Z,9.10
2019-03-03T10:17:38.144Z,9.10
2019-03-03T10:20:10.634Z,9.10
2019-03-03T10:22:43.582Z,9.20
2019-03-03T10:25:25.498Z,9.20
2019-03-03T10:27:58.258Z,9.20
2019-03-03T10:30:37.406Z,9.20
2019-03-03T10:33:10.670Z,9.20
2019-03-03T10:35:57.096Z,9.30
2019-03-03T10:38:38.861Z,9.30
2019-03-03T10:41:08.911Z,9.40
2019-03-03T10:43:47.971Z,9.40
2019-03-03T10:46:35.989Z,9.40
2019-03-03T10:49:06.287Z,9.50
2019-03-03T10:51:36.361Z,9.60
2019-03-03T10:54:06.422Z,9.60
2019-03-03T10:56:39.535Z,9.70
2019-03-03T10:59:09.584Z,9.80
2019-03-03T11:01:39.629Z,9.90
2019-03-03T11:04:12.602Z,9.90
2019-03-03T11:06:42.662Z,10.00
2019-03-03T11:09:23.514Z,10.10
2019-03-03T11:11:59.514Z,10.10
2019-03-03T11:14:45.631Z,10.10
2019-03-03T11:17:24.498Z,10.10
2019-03-03T11:19:57.287Z,10.20
2019-03-03T11:22:43.575Z,10.20
2019-03-03T11:25:16.539Z,10.30
2019-03-03T11:27:49.362Z,10.40
2019-03-03T11:30:22.444Z,10.40
2019-03-03T11:33:11.574Z,10.40
2019-03-03T11:35:41.654Z,10.40
2019-03-03T11:38:17.820Z,10.40
2019-03-03T11:40:47.894Z,10.50
2019-03-03T11:43:17.950Z,10.50
2019-03-03T11:45:48.001Z,10.60
2019-03-03T11:48:19.743Z,10.60
2019-03-03T11:50:49.927Z,10.60
2019-03-03T11:53:26.179Z,10.60
2019-03-03T11:55:56.227Z,10.60
2019-03-03T11:58:31.800Z,10.70
2019-03-03T12:01:19.713Z,10.70
2019-03-03T12:03:52.717Z,10.80
2019-03-03T12:06:22.818Z,10.90
2019-03-03T12:08:58.738Z,10.90
2019-03-03T12:11:28.782Z,10.90
2019-03-03T12:13:58.873Z,10.90
2019-03-03T12:16:29.006Z,10.90
2019-03-03T12:19:01.832Z,10.90
2019-03-03T12:21:32.011Z,10.90
2019-03-03T12:24:02.063Z,10.90
2019-03-03T12:26:37.963Z,11.00
2019-03-03T12:29:08.018Z,11.00
2019-03-03T12:31:51.882Z,11.00
2019-03-03T12:34:21.646Z,11.10
2019-03-03T12:36:54.487Z,11.10
2019-03-03T12:39:33.579Z,11.10
2019-03-03T12:42:06.427Z,11.20
2019-03-03T12:44:42.756Z,11.10
2019-03-03T12:47:22.103Z,11.10
2019-03-03T12:49:52.154Z,11.00
2019-03-03T12:52:38.419Z,10.90
2019-03-03T12:55:24.723Z,11.00
2019-03-03T12:58:09.823Z,10.90
2019-03-03T13:00:54.818Z,10.90
2019-03-03T13:03:27.885Z,10.90
2019-03-03T13:05:57.936Z,10.80
2019-03-03T13:08:44.050Z,10.90
2019-03-03T13:11:25.731Z,10.90
2019-03-03T13:14:12.198Z,10.90
2019-03-03T13:16:45.215Z,11.00
2019-03-03T13:19:15.388Z,11.10
2019-03-03T13:21:45.448Z,11.10
2019-03-03T13:24:21.017Z,11.20
2019-03-03T13:26:53.895Z,11.30
2019-03-03T13:29:29.873Z,11.40
2019-03-03T13:32:15.190Z,11.40
2019-03-03T13:34:54.290Z,11.30
2019-03-03T13:37:36.306Z,11.40
2019-03-03T13:40:09.095Z,11.40
2019-03-03T13:42:39.174Z,11.30
2019-03-03T13:45:10.589Z,11.20
2019-03-03T13:47:39.067Z,11.20
2019-03-03T13:50:13.014Z,11.20
2019-03-03T13:52:41.496Z,11.20
2019-03-03T13:55:11.818Z,11.20
2019-03-03T13:57:40.254Z,11.20
2019-03-03T14:00:12.176Z,11.20
2019-03-03T14:02:40.652Z,11.20
2019-03-03T14:05:09.622Z,11.10
2019-03-03T14:07:38.375Z,11.20
2019-03-03T14:10:09.591Z,11.10
2019-03-03T14:12:38.506Z,11.00
2019-03-03T14:15:10.562Z,10.90
2019-03-03T14:17:39.246Z,10.90
2019-03-03T14:20:11.068Z,10.90
2019-03-03T14:22:39.583Z,10.90
2019-03-03T14:25:09.001Z,10.90
2019-03-03T14:27:37.510Z,10.80
2019-03-03T14:30:10.225Z,10.90
2019-03-03T14:32:38.706Z,10.90
2019-03-03T14:35:09.086Z,10.90
2019-03-03T14:37:37.662Z,10.90
2019-03-03T14:40:09.487Z,10.80
2019-03-03T14:42:38.055Z,10.90
2019-03-03T14:45:09.736Z,10.80
2019-03-03T14:47:38.219Z,10.80
2019-03-03T14:50:09.699Z,10.70
2019-03-03T14:52:38.127Z,10.60
2019-03-03T14:55:09.871Z,10.60
2019-03-03T14:57:38.324Z,10.70
2019-03-03T15:00:12.775Z,10.50
2019-03-03T15:02:41.286Z,10.50
2019-03-03T15:05:09.695Z,10.40
2019-03-03T15:07:38.110Z,10.50
2019-03-03T15:10:09.868Z,10.50
2019-03-03T15:12:38.346Z,10.50
2019-03-03T15:15:15.978Z,10.40
2019-03-03T15:17:44.511Z,10.40
2019-03-03T15:20:12.942Z,10.40
2019-03-03T15:22:41.432Z,10.30
2019-03-03T15:25:11.302Z,10.30
2019-03-03T15:27:39.707Z,10.30
2019-03-03T15:30:14.030Z,10.20
2019-03-03T15:32:42.472Z,10.20
2019-03-03T15:35:10.955Z,10.20
2019-03-03T15:37:39.406Z,10.20
2019-03-03T15:40:13.586Z,10.10
2019-03-03T15:42:42.638Z,10.10
2019-03-03T15:45:14.219Z,10.10
2019-03-03T15:47:42.702Z,10.10
2019-03-03T15:50:12.027Z,10.00
2019-03-03T15:52:40.557Z,10.00
2019-03-03T15:55:14.467Z,10.00
2019-03-03T15:57:43.907Z,10.00
2019-03-03T16:00:18.039Z,9.90
2019-03-03T16:02:46.494Z,9.80
2019-03-03T16:05:15.619Z,9.80
2019-03-03T16:07:44.218Z,9.70
2019-03-03T16:10:15.071Z,9.70
2019-03-03T16:12:43.479Z,9.70
2019-03-03T16:15:13.952Z,9.60
2019-03-03T16:17:42.358Z,9.60
2019-03-03T16:20:21.777Z,9.70
2019-03-03T16:22:50.198Z,9.70
2019-03-03T16:25:20.058Z,9.70
2019-03-03T16:27:48.559Z,9.70
2019-03-03T16:30:20.998Z,9.60
2019-03-03T16:32:49.416Z,9.40
2019-03-03T16:35:17.910Z,9.40
2019-03-03T16:37:46.386Z,9.40
2019-03-03T16:40:17.204Z,9.30
2019-03-03T16:42:45.638Z,9.30
2019-03-03T16:45:15.479Z,9.30
2019-03-03T16:47:43.931Z,9.30
2019-03-03T16:50:17.814Z,9.30
2019-03-03T16:52:46.426Z,9.30
2019-03-03T16:55:15.967Z,9.20
2019-03-03T16:57:44.393Z,9.20
2019-03-03T17:00:15.685Z,9.20
2019-03-03T17:02:44.084Z,9.20
2019-03-03T17:05:17.828Z,9.10
2019-03-03T17:07:46.298Z,9.10
2019-03-03T17:10:14.794Z,9.00
2019-03-03T17:12:43.266Z,9.10
2019-03-03T17:15:15.171Z,9.10
2019-03-03T17:17:43.746Z,9.10
2019-03-03T17:20:12.223Z,9.00
2019-03-03T17:22:40.624Z,9.00
2019-03-03T17:25:12.323Z,8.90
2019-03-03T17:27:40.800Z,8.80
2019-03-03T17:30:12.396Z,8.80
2019-03-03T17:32:40.899Z,8.70
2019-03-03T17:35:09.374Z,8.60
2019-03-03T17:37:37.790Z,8.60
2019-03-03T17:40:09.726Z,8.70
2019-03-03T17:42:38.155Z,8.70
2019-03-03T17:45:12.267Z,8.70
2019-03-03T17:47:40.709Z,8.70
2019-03-03T17:50:12.110Z,8.70
2019-03-03T17:52:40.578Z,8.60
2019-03-03T17:55:10.373Z,8.60
2019-03-03T17:57:38.856Z,8.50
2019-03-03T18:00:16.404Z,8.50
2019-03-03T18:02:44.807Z,8.50
2019-03-03T18:05:13.331Z,8.40
2019-03-03T18:07:41.858Z,8.40
2019-03-03T18:10:11.487Z,8.40
2019-03-03T18:12:39.994Z,8.30
2019-03-03T18:15:10.769Z,8.30
2019-03-03T18:17:39.629Z,8.30
2019-03-03T18:20:17.372Z,8.20
2019-03-03T18:22:45.898Z,8.20
2019-03-03T18:25:17.565Z,8.30
2019-03-03T18:27:46.210Z,8.30
2019-03-03T18:30:25.482Z,8.30
2019-03-03T18:32:53.922Z,8.20
2019-03-03T18:35:22.391Z,8.10
2019-03-03T18:37:50.915Z,8.10
2019-03-03T18:40:23.450Z,8.00
2019-03-03T18:42:52.006Z,8.00
2019-03-03T18:45:21.550Z,8.00
2019-03-03T18:47:50.098Z,8.00
2019-03-03T18:50:20.974Z,8.00
2019-03-03T18:52:49.450Z,7.90
2019-03-03T18:55:17.996Z,7.90
2019-03-03T18:57:46.448Z,7.90
2019-03-03T19:00:22.653Z,7.90
2019-03-03T19:02:51.308Z,7.80
2019-03-03T19:05:19.715Z,7.80
2019-03-03T19:07:48.446Z,7.80
2019-03-03T19:10:20.214Z,7.80
2019-03-03T19:12:48.622Z,7.80
2019-03-03T19:15:19.119Z,7.70
2019-03-03T19:19:30.447Z,7.70
2019-03-03T19:21:58.863Z,7.70
2019-03-03T19:24:36.214Z,7.70
2019-03-03T19:27:04.659Z,7.70
2019-03-03T19:29:33.130Z,7.70
2019-03-03T19:32:01.631Z,7.70
2019-03-03T19:34:30.099Z,7.70
2019-03-03T19:37:13.187Z,7.70
2019-03-03T19:39:42.954Z,7.70
2019-03-03T19:42:11.448Z,7.70
2019-03-03T19:44:39.854Z,7.60
2019-03-03T19:47:08.262Z,7.60
2019-03-03T19:49:36.698Z,7.60
2019-03-03T19:52:05.232Z,7.50
2019-03-03T19:54:33.709Z,7.50
2019-03-03T19:57:02.234Z,7.50
2019-03-03T19:59:30.703Z,7.50
2019-03-03T20:01:59.139Z,7.50
2019-03-03T20:04:27.670Z,7.50
2019-03-03T20:06:56.084Z,7.50
2019-03-03T20:09:24.563Z,7.50
2019-03-03T20:11:53.066Z,7.50
2019-03-03T20:14:21.568Z,7.40
2019-03-03T20:16:49.967Z,7.40
2019-03-03T20:19:18.466Z,7.50
2019-03-03T20:21:46.878Z,7.50
2019-03-03T20:24:15.289Z,7.40
2019-03-03T20:26:43.795Z,7.40
2019-03-03T20:29:12.239Z,7.40
2019-03-03T20:31:40.724Z,7.40
2019-03-03T20:34:09.178Z,7.50
2019-03-03T20:36:37.679Z,7.50
2019-03-03T20:39:06.978Z,7.40
2019-03-03T20:41:35.420Z,7.50
2019-03-03T20:44:03.942Z,7.50
2019-03-03T20:46:32.437Z,7.50
2019-03-03T20:49:00.873Z,7.50
2019-03-03T20:51:29.379Z,7.50
2019-03-03T20:53:57.927Z,7.50
2019-03-03T20:56:27.596Z,7.50
2019-03-03T20:58:56.046Z,7.50
2019-03-03T21:01:24.450Z,7.50
2019-03-03T21:03:52.953Z,7.50
2019-03-03T21:06:21.422Z,7.40
2019-03-03T21:08:49.886Z,7.40
2019-03-03T21:11:18.310Z,7.40
2019-03-03T21:13:46.722Z,7.50
2019-03-03T21:16:15.127Z,7.50
2019-03-03T21:18:43.772Z,7.50
2019-03-03T21:21:12.211Z,7.50
2019-03-03T21:23:40.622Z,7.50
2019-03-03T21:26:09.058Z,7.50
2019-03-03T21:28:37.538Z,7.60
2019-03-03T21:31:05.995Z,7.50
2019-03-03T21:33:34.434Z,7.50
2019-03-03T21:36:02.923Z,7.50
2019-03-03T21:38:31.438Z,7.50
2019-03-03T21:40:59.875Z,7.40
2019-03-03T21:43:28.278Z,7.40
2019-03-03T21:45:56.693Z,7.50
2019-03-03T21:48:25.129Z,7.50
2019-03-03T21:50:53.536Z,7.50
2019-03-03T21:53:22.020Z,7.50
2019-03-03T21:55:50.558Z,7.60
2019-03-03T21:58:19.038Z,7.50
2019-03-03T22:00:47.586Z,7.50
2019-03-03T22:03:16.086Z,7.50
2019-03-03T22:05:44.555Z,7.50
2019-03-03T22:08:12.990Z,7.50
2019-03-03T22:10:41.414Z,7.50
2019-03-03T22:13:11.726Z,7.50
2019-03-03T22:15:40.165Z,7.50
2019-03-03T22:18:08.649Z,7.40
2019-03-03T22:20:37.117Z,7.40
2019-03-03T22:23:05.630Z,7.40
2019-03-03T22:25:34.130Z,7.40
2019-03-03T22:28:02.562Z,7.50
2019-03-03T22:30:32.590Z,7.50
2019-03-03T22:33:01.103Z,7.50
2019-03-03T22:35:29.576Z,7.40
2019-03-03T22:37:57.972Z,7.40
2019-03-03T22:40:26.458Z,7.50
2019-03-03T22:42:54.950Z,7.50
2019-03-03T22:45:23.631Z,7.50
2019-03-03T22:47:52.078Z,7.50
2019-03-03T22:50:21.221Z,7.50
2019-03-03T22:52:49.642Z,7.50
2019-03-03T22:55:19.510Z,7.50
2019-03-03T22:57:47.914Z,7.50
2019-03-03T23:00:30.064Z,7.40
2019-03-03T23:02:58.470Z,7.40
2019-03-03T23:05:39.174Z,7.50
2019-03-03T23:08:10.917Z,7.40
2019-03-03T23:10:48.463Z,7.40
2019-03-03T23:13:31.823Z,7.40
2019-03-03T23:16:24.702Z,7.40
2019-03-03T23:19:19.319Z,7.30
2019-03-03T23:22:09.540Z,7.40
2019-03-03T23:24:44.191Z,7.30
2019-03-03T23:27:12.659Z,7.20
2019-03-03T23:29:41.124Z,7.20
2019-03-03T23:32:09.856Z,7.20
2019-03-03T23:34:38.624Z,7.10
2019-03-03T23:37:07.419Z,7.10
2019-03-03T23:39:36.144Z,7.00
2019-03-03T23:42:04.963Z,6.90
2019-03-03T23:44:33.763Z,6.90
2019-03-03T23:47:02.492Z,6.80
2019-03-03T23:49:31.248Z,6.80
2019-03-03T23:51:59.975Z,6.80
2019-03-03T23:54:28.770Z,6.80
2019-03-03T23:56:57.525Z,6.70
2019-03-03T23:59:26.338Z,6.70
